Time;durP1;ratioP1;P1;durP2;ratioP2;P2;SDS_P1;SDS_P2;PMS_P1;PMS_P2;Temp;Humidity;BMP_temperature;BMP_pressure;BME280_temperature;BME280_humidity;BME280_pressure;Samples;Min_cycle;Max_cycle;Signal;HPM_P1;HPM_P2
2023/10/22 00:01:32;;;;;;;;;;;;;;;14.59;100.00;97840.02;135653;1273;22519;-81
2023/10/22 00:04:34;;;;;;;;;;;;;;;14.62;100.00;97838.55;135619;1273;22508;-81
2023/10/22 00:07:37;;;;;;;;;;;;;;;14.64;100.00;97838.88;135663;1273;22608;-81
2023/10/22 00:10:39;;;;;;;;;;;;;;;14.65;100.00;97844.09;135673;1273;22621;-81
2023/10/22 00:13:42;;;;;;;;;;;;;;;14.66;100.00;97840.40;135826;1269;22506;-83
2023/10/22 00:16:44;;;;;;;;;;;;;;;14.67;100.00;97830.77;135761;1273;22754;-80
2023/10/22 00:19:47;;;;;;;;;;;;;;;14.67;100.00;97833.39;135750;1273;22518;-80
2023/10/22 00:22:50;;;;;;;;;;;;;;;14.66;100.00;97835.16;135817;1273;22531;-81
2023/10/22 00:25:53;;;;;;;;;;;;;;;14.66;100.00;97837.95;135722;1273;24172;-83
2023/10/22 00:28:56;;;;;;;;;;;;;;;14.65;100.00;97837.98;135709;1273;23561;-81
2023/10/22 00:31:58;;;;;;;;;;;;;;;14.64;100.00;97838.33;135770;1273;22577;-82
2023/10/22 00:35:02;;;;;;;;;;;;;;;14.64;100.00;97840.44;135773;1273;22498;-83
2023/10/22 00:38:04;;;;;;;;;;;;;;;14.64;100.00;97838.52;135804;1273;22521;-82
2023/10/22 00:41:11;;;;;;;;;;;;;;;14.62;100.00;97832.96;135802;1273;22504;-81
2023/10/22 00:44:13;;;;;;;;;;;;;;;14.62;100.00;97836.10;135786;1270;22518;-81
2023/10/22 00:47:16;;;;;;;;;;;;;;;14.62;100.00;97829.45;135817;1273;22512;-82
2023/10/22 00:50:18;;;;;;;;;;;;;;;14.61;100.00;97824.23;135796;1273;22498;-82
2023/10/22 00:53:21;;;;;;;;;;;;;;;14.62;100.00;97823.86;135894;1273;22496;-81
2023/10/22 00:56:23;;;;;;;;;;;;;;;14.62;100.00;97821.59;135870;1273;22540;-81
2023/10/22 00:59:26;;;;;;;;;;;;;;;14.63;100.00;97816.65;135985;1273;22523;-81
2023/10/22 01:02:28;;;;;;;;;;;;;;;14.65;100.00;97818.20;135979;1273;22566;-80
2023/10/22 01:05:31;;;;;;;;;;;;;;;14.67;100.00;97815.35;136019;1273;24273;-82
2023/10/22 01:08:33;;;;;;;;;;;;;;;14.71;100.00;97813.00;135930;1273;22567;-80
2023/10/22 01:11:37;;;;;;;;;;;;;;;14.72;100.00;97813.67;135931;1273;22531;-82
2023/10/22 01:14:40;;;;;;;;;;;;;;;14.72;100.00;97808.95;135760;1273;22516;-83
2023/10/22 01:17:42;;;;;;;;;;;;;;;14.72;100.00;97805.45;135766;1273;22514;-81
2023/10/22 01:20:45;;;;;;;;;;;;;;;14.71;100.00;97804.77;135753;1273;22558;-83
2023/10/22 01:23:47;;;;;;;;;;;;;;;14.70;100.00;97802.86;135714;1273;22560;-83
2023/10/22 01:26:50;;;;;;;;;;;;;;;14.66;100.00;97796.46;135685;1273;22508;-82
2023/10/22 01:29:55;;;;;;;;;;;;;;;14.63;100.00;97787.42;135677;1273;24215;-83
2023/10/22 01:32:57;;;;;;;;;;;;;;;14.61;100.00;97788.15;135698;1273;22618;-82
2023/10/22 01:36:00;;;;;;;;;;;;;;;14.56;100.00;97785.98;135699;1273;24193;-79
2023/10/22 01:39:02;;;;;;;;;;;;;;;14.54;100.00;97778.33;135627;1273;22515;-81
2023/10/22 01:42:05;;;;;;;;;;;;;;;14.52;100.00;97777.15;135610;1273;22880;-80
2023/10/22 01:45:08;;;;;;;;;;;;;;;14.47;100.00;97772.00;135646;1273;22499;-82
2023/10/22 01:48:10;;;;;;;;;;;;;;;14.44;100.00;97768.56;135682;1273;22522;-83
2023/10/22 01:51:13;;;;;;;;;;;;;;;14.38;100.00;97767.42;135664;1273;22552;-82
2023/10/22 01:54:16;;;;;;;;;;;;;;;14.36;100.00;97760.98;135656;1273;22508;-82
2023/10/22 01:57:19;;;;;;;;;;;;;;;14.37;100.00;97757.84;135663;1273;22514;-82
2023/10/22 02:00:21;;;;;;;;;;;;;;;14.35;100.00;97756.11;135657;1273;23034;-81
2023/10/22 02:03:24;;;;;;;;;;;;;;;14.34;100.00;97749.13;135734;1273;22520;-80
2023/10/22 02:06:27;;;;;;;;;;;;;;;14.35;100.00;97742.46;135746;1273;22507;-81
2023/10/22 02:09:30;;;;;;;;;;;;;;;14.32;100.00;97741.11;135774;1273;22518;-82
2023/10/22 02:12:34;;;;;;;;;;;;;;;14.32;100.00;97733.42;135795;1273;23280;-81
2023/10/22 02:15:36;;;;;;;;;;;;;;;14.33;100.00;97725.17;135777;1273;22505;-81
2023/10/22 02:18:39;;;;;;;;;;;;;;;14.33;100.00;97716.59;135744;1273;22499;-81
2023/10/22 02:21:41;;;;;;;;;;;;;;;14.32;100.00;97712.59;135709;1273;24254;-82
2023/10/22 02:24:44;;;;;;;;;;;;;;;14.28;100.00;97703.58;135713;1273;22553;-82
2023/10/22 02:27:46;;;;;;;;;;;;;;;14.27;100.00;97700.64;135720;1273;25351;-82
2023/10/22 02:30:49;;;;;;;;;;;;;;;14.27;100.00;97702.90;135754;1273;24193;-82
2023/10/22 02:33:51;;;;;;;;;;;;;;;14.30;100.00;97696.55;135734;1273;22511;-82
2023/10/22 02:36:54;;;;;;;;;;;;;;;14.30;100.00;97690.60;135736;1273;22523;-82
2023/10/22 02:39:57;;;;;;;;;;;;;;;14.29;100.00;97690.27;135739;1273;22527;-82
2023/10/22 02:42:59;;;;;;;;;;;;;;;14.27;100.00;97692.59;135767;1273;22625;-82
2023/10/22 02:46:02;;;;;;;;;;;;;;;14.25;100.00;97695.25;135747;1273;25216;-82
2023/10/22 02:49:04;;;;;;;;;;;;;;;14.21;100.00;97700.75;135731;1273;22532;-82
2023/10/22 02:52:07;;;;;;;;;;;;;;;14.18;100.00;97703.80;135747;1273;23231;-81
2023/10/22 02:55:12;;;;;;;;;;;;;;;14.15;100.00;97703.16;135711;1273;22496;-83
2023/10/22 02:58:15;;;;;;;;;;;;;;;14.13;100.00;97702.16;136152;1273;22436;-82
2023/10/22 03:01:19;;;;;;;;;;;;;;;14.13;100.00;97698.83;136541;1273;24429;-82
2023/10/22 03:04:22;;;;;;;;;;;;;;;14.14;100.00;97694.95;136495;1273;22452;-81
2023/10/22 03:07:26;;;;;;;;;;;;;;;14.20;100.00;97693.79;136627;1273;22535;-80
2023/10/22 03:10:29;;;;;;;;;;;;;;;14.24;100.00;97687.04;136726;1273;22456;-81
2023/10/22 03:13:34;;;;;;;;;;;;;;;14.28;100.00;97689.05;136198;1273;22502;-80
2023/10/22 03:16:36;;;;;;;;;;;;;;;14.31;100.00;97696.18;136105;1273;24193;-81
2023/10/22 03:19:39;;;;;;;;;;;;;;;14.33;100.00;97701.91;136103;1273;22514;-79
2023/10/22 03:22:42;;;;;;;;;;;;;;;14.31;100.00;97700.88;135718;1273;24840;-82
2023/10/22 03:25:45;;;;;;;;;;;;;;;14.31;100.00;97702.47;135710;1273;22523;-81
2023/10/22 03:28:50;;;;;;;;;;;;;;;14.32;100.00;97706.84;135699;1273;22515;-80
2023/10/22 03:31:52;;;;;;;;;;;;;;;14.31;100.00;97707.02;135651;1273;22533;-80
2023/10/22 03:34:55;;;;;;;;;;;;;;;14.29;100.00;97712.14;135642;1273;22526;-82
2023/10/22 03:37:58;;;;;;;;;;;;;;;14.29;100.00;97710.39;135710;1273;22506;-83
2023/10/22 03:41:01;;;;;;;;;;;;;;;14.30;100.00;97712.98;135732;1273;22618;-82
2023/10/22 03:44:04;;;;;;;;;;;;;;;14.33;100.00;97719.77;135720;1273;22515;-81
2023/10/22 03:47:07;;;;;;;;;;;;;;;14.33;100.00;97718.70;135680;1273;22512;-83
2023/10/22 03:50:09;;;;;;;;;;;;;;;14.34;100.00;97719.39;135702;1273;22530;-83
2023/10/22 03:53:12;;;;;;;;;;;;;;;14.34;100.00;97717.80;135653;1273;22516;-82
2023/10/22 03:56:15;;;;;;;;;;;;;;;14.36;100.00;97718.10;135665;1273;22518;-82
2023/10/22 03:59:19;;;;;;;;;;;;;;;14.40;100.00;97710.50;135732;1273;22527;-82
2023/10/22 04:02:23;;;;;;;;;;;;;;;14.44;100.00;97711.69;135700;1273;22515;-81
2023/10/22 04:05:26;;;;;;;;;;;;;;;14.45;100.00;97705.55;135844;1273;25673;-82
2023/10/22 04:08:28;;;;;;;;;;;;;;;14.43;100.00;97703.46;135824;1273;22577;-82
2023/10/22 04:11:31;;;;;;;;;;;;;;;14.40;100.00;97699.48;135937;1273;22467;-82
2023/10/22 04:14:33;;;;;;;;;;;;;;;14.37;100.00;97697.63;135885;1273;22499;-81
2023/10/22 04:17:36;;;;;;;;;;;;;;;14.35;100.00;97692.41;135965;1273;22630;-82
2023/10/22 04:20:38;;;;;;;;;;;;;;;14.35;100.00;97695.39;135920;1273;22577;-82
2023/10/22 04:23:41;;;;;;;;;;;;;;;14.35;100.00;97693.98;135835;1273;22498;-82
2023/10/22 04:26:46;;;;;;;;;;;;;;;14.35;100.00;97686.45;135764;1273;22498;-82
2023/10/22 04:29:49;;;;;;;;;;;;;;;14.36;100.00;97681.19;135899;1273;22615;-80
2023/10/22 04:32:51;;;;;;;;;;;;;;;14.36;100.00;97678.55;135870;1273;22697;-79
2023/10/22 04:35:54;;;;;;;;;;;;;;;14.42;100.00;97677.92;135616;1273;22518;-82
2023/10/22 04:38:57;;;;;;;;;;;;;;;-70.86;39.40;39070.48;133448;1273;1004614;-82
2023/10/22 04:41:59;;;;;;;;;;;;;;;-128.00;-1.00;-1.00;132076;1273;1004473;-83
2023/10/22 04:45:05;;;;;;;;;;;;;;;-128.00;-1.00;-1.00;132043;1273;1004624;-82
2023/10/22 04:48:07;;;;;;;;;;;;;;;-128.00;-1.00;-1.00;132042;1273;1004491;-82
2023/10/22 04:51:11;;;;;;;;;;;;;;;-128.00;-1.00;-1.00;132109;1273;1004913;-82
2023/10/22 04:54:13;;;;;;;;;;;;;;;-128.00;-1.00;-1.00;131983;1273;1004808;-84
2023/10/22 04:57:16;;;;;;;;;;;;;;;-128.00;-1.00;-1.00;131936;1273;1004201;-84
2023/10/22 05:00:20;;;;;;;;;;;;;;;-128.00;-1.00;-1.00;131932;1273;1003943;-84
2023/10/22 05:03:24;;;;;;;;;;;;;;;-128.00;-1.00;-1.00;131914;1273;1004828;-85
2023/10/22 05:06:27;;;;;;;;;;;;;;;-128.00;-1.00;-1.00;132007;1273;1003935;-83
2023/10/22 05:09:32;;;;;;;;;;;;;;;-128.00;-1.00;-1.00;131967;1273;1004320;-85
2023/10/22 05:12:35;;;;;;;;;;;;;;;-128.00;-1.00;-1.00;131898;1273;1005357;-82
2023/10/22 05:15:37;;;;;;;;;;;;;;;-128.00;-1.00;-1.00;132024;1273;1003917;-83
2023/10/22 05:18:40;;;;;;;;;;;;;;;-128.00;-1.00;-1.00;131954;1273;1004602;-82
2023/10/22 05:21:42;;;;;;;;;;;;;;;-128.00;-1.00;-1.00;131892;1273;1004536;-82
2023/10/22 05:24:45;;;;;;;;;;;;;;;-128.00;-1.00;-1.00;131972;1273;1004454;-83
2023/10/22 05:27:47;;;;;;;;;;;;;;;-128.00;-1.00;-1.00;132032;1273;1004828;-83
2023/10/22 05:30:53;;;;;;;;;;;;;;;-128.00;-1.00;-1.00;131956;1273;1003674;-83
2023/10/22 05:33:55;;;;;;;;;;;;;;;-128.00;-1.00;-1.00;132171;1273;1004840;-83
2023/10/22 05:36:58;;;;;;;;;;;;;;;-128.00;-1.00;-1.00;132197;1273;1004054;-82
2023/10/22 05:40:00;;;;;;;;;;;;;;;-128.00;-1.00;-1.00;132282;1273;1004896;-84
2023/10/22 05:43:03;;;;;;;;;;;;;;;-128.00;-1.00;-1.00;132161;1273;1005039;-84
2023/10/22 05:46:06;;;;;;;;;;;;;;;-128.00;-1.00;-1.00;132116;1273;1004315;-83
2023/10/22 05:49:11;;;;;;;;;;;;;;;-128.00;-1.00;-1.00;132101;1273;1004631;-84
2023/10/22 05:52:14;;;;;;;;;;;;;;;-128.00;-1.00;-1.00;132091;1273;1004496;-84
2023/10/22 05:55:19;;;;;;;;;;;;;;;-128.00;-1.00;-1.00;132020;1273;1005412;-84
2023/10/22 05:58:22;;;;;;;;;;;;;;;-128.00;-1.00;-1.00;131962;1273;1004561;-84
2023/10/22 06:01:29;;;;;;;;;;;;;;;-128.00;-1.00;-1.00;131960;1273;1004593;-83
2023/10/22 06:04:31;;;;;;;;;;;;;;;-128.00;-1.00;-1.00;131893;1273;1004916;-84
2023/10/22 06:07:34;;;;;;;;;;;;;;;-128.00;-1.00;-1.00;131990;1273;1004443;-84
2023/10/22 06:10:37;;;;;;;;;;;;;;;-128.00;-1.00;-1.00;131926;1273;1004148;-85
2023/10/22 06:13:40;;;;;;;;;;;;;;;-128.00;-1.00;-1.00;131928;1273;1004465;-84
2023/10/22 06:16:42;;;;;;;;;;;;;;;-128.00;-1.00;-1.00;131937;1273;1004793;-84
2023/10/22 06:19:45;;;;;;;;;;;;;;;-128.00;-1.00;-1.00;131911;1273;1004313;-84
2023/10/22 06:22:47;;;;;;;;;;;;;;;-128.00;-1.00;-1.00;132016;1273;1004809;-84
2023/10/22 06:25:52;;;;;;;;;;;;;;;-128.00;-1.00;-1.00;131918;1273;1003882;-86
2023/10/22 06:28:55;;;;;;;;;;;;;;;-128.00;-1.00;-1.00;132109;1273;1004949;-83
2023/10/22 06:31:57;;;;;;;;;;;;;;;-128.00;-1.00;-1.00;132087;1273;1005542;-82
2023/10/22 06:35:00;;;;;;;;;;;;;;;-128.00;-1.00;-1.00;132087;1273;1004638;-83
2023/10/22 06:38:03;;;;;;;;;;;;;;;-128.00;-1.00;-1.00;132001;1274;1004123;-83
2023/10/22 06:41:05;;;;;;;;;;;;;;;-128.00;-1.00;-1.00;131955;1274;1006147;-83
2023/10/22 06:44:08;;;;;;;;;;;;;;;-128.00;-1.00;-1.00;131953;1274;1004455;-83
2023/10/22 06:47:11;;;;;;;;;;;;;;;-128.00;-1.00;-1.00;132016;1274;1005288;-83
2023/10/22 06:50:13;;;;;;;;;;;;;;;-128.00;-1.00;-1.00;131938;1274;1005058;-82
2023/10/22 06:53:16;;;;;;;;;;;;;;;-128.00;-1.00;-1.00;132028;1274;1004514;-84
2023/10/22 06:56:18;;;;;;;;;;;;;;;-128.00;-1.00;-1.00;131995;1275;1004802;-83
2023/10/22 06:59:21;;;;;;;;;;;;;;;-128.00;-1.00;-1.00;132012;1274;1004951;-84
2023/10/22 07:02:23;;;;;;;;;;;;;;;-128.00;-1.00;-1.00;132003;1274;1005836;-84
2023/10/22 07:05:26;;;;;;;;;;;;;;;-128.00;-1.00;-1.00;131916;1274;1003583;-84
2023/10/22 07:08:28;;;;;;;;;;;;;;;-128.00;-1.00;-1.00;131874;1274;1004996;-83
2023/10/22 07:11:33;;;;;;;;;;;;;;;-128.00;-1.00;-1.00;131861;1274;1005134;-84
2023/10/22 07:14:36;;;;;;;;;;;;;;;-128.00;-1.00;-1.00;131815;1274;1004585;-83
2023/10/22 07:17:38;;;;;;;;;;;;;;;-128.00;-1.00;-1.00;131870;1274;1004494;-84
2023/10/22 07:20:41;;;;;;;;;;;;;;;-128.00;-1.00;-1.00;131844;1274;1004990;-84
2023/10/22 07:23:43;;;;;;;;;;;;;;;-128.00;-1.00;-1.00;131912;1274;1005282;-85
2023/10/22 07:26:46;;;;;;;;;;;;;;;-128.00;-1.00;-1.00;131881;1274;1005269;-84
2023/10/22 07:29:48;;;;;;;;;;;;;;;-128.00;-1.00;-1.00;131856;1274;1004362;-83
2023/10/22 07:32:51;;;;;;;;;;;;;;;-128.00;-1.00;-1.00;131781;1274;1004282;-84
2023/10/22 07:35:54;;;;;;;;;;;;;;;-128.00;-1.00;-1.00;132798;1275;1004385;-84
2023/10/22 07:38:57;;;;;;;;;;;;;;;-128.00;-1.00;-1.00;133234;1273;1003683;-83
2023/10/22 07:41:59;;;;;;;;;;;;;;;-128.00;-1.00;-1.00;133015;1272;1004784;-82
2023/10/22 07:45:02;;;;;;;;;;;;;;;-128.00;-1.00;-1.00;132878;1272;1004205;-81
2023/10/22 07:48:04;;;;;;;;;;;;;;;-128.00;-1.00;-1.00;132706;1273;1004913;-80
2023/10/22 07:51:07;;;;;;;;;;;;;;;-128.00;-1.00;-1.00;132626;1272;1005429;-80
2023/10/22 07:54:09;;;;;;;;;;;;;;;-128.00;-1.00;-1.00;132595;1272;1004666;-80
2023/10/22 07:57:12;;;;;;;;;;;;;;;-128.00;-1.00;-1.00;132574;1273;1004687;-81
2023/10/22 08:00:14;;;;;;;;;;;;;;;-128.00;-1.00;-1.00;132463;1273;1004144;-84
2023/10/22 08:03:17;;;;;;;;;;;;;;;-128.00;-1.00;-1.00;132263;1272;1004348;-82
2023/10/22 08:06:20;;;;;;;;;;;;;;;-128.00;-1.00;-1.00;132184;1272;1004083;-85
2023/10/22 08:09:22;;;;;;;;;;;;;;;-128.00;-1.00;-1.00;132075;1273;1004088;-83
2023/10/22 08:12:24;;;;;;;;;;;;;;;-128.00;-1.00;-1.00;132182;1273;1003745;-85
2023/10/22 08:15:27;;;;;;;;;;;;;;;-128.00;-1.00;-1.00;132273;1272;1004155;-85
2023/10/22 08:18:31;;;;;;;;;;;;;;;-128.00;-1.00;-1.00;132237;1273;1003954;-83
2023/10/22 08:21:34;;;;;;;;;;;;;;;-128.00;-1.00;-1.00;132198;1272;1004345;-83
2023/10/22 08:24:37;;;;;;;;;;;;;;;-128.00;-1.00;-1.00;132449;1272;1006969;-82
2023/10/22 08:27:39;;;;;;;;;;;;;;;-128.00;-1.00;-1.00;132318;1273;1004441;-83
2023/10/22 08:30:42;;;;;;;;;;;;;;;-128.00;-1.00;-1.00;132217;1272;1005402;-83
2023/10/22 08:33:44;;;;;;;;;;;;;;;-128.00;-1.00;-1.00;132250;1272;1003780;-85
2023/10/22 08:36:47;;;;;;;;;;;;;;;-128.00;-1.00;-1.00;132074;1273;1004608;-86
2023/10/22 08:39:49;;;;;;;;;;;;;;;-128.00;-1.00;-1.00;132048;1272;1003962;-84
2023/10/22 08:42:52;;;;;;;;;;;;;;;-128.00;-1.00;-1.00;132087;1272;1005571;-85
2023/10/22 08:45:55;;;;;;;;;;;;;;;-128.00;-1.00;-1.00;132089;1272;1005231;-84
2023/10/22 08:48:57;;;;;;;;;;;;;;;-128.00;-1.00;-1.00;132030;1272;1004608;-85
2023/10/22 08:51:59;;;;;;;;;;;;;;;-128.00;-1.00;-1.00;132058;1272;1004528;-84
2023/10/22 08:55:02;;;;;;;;;;;;;;;-128.00;-1.00;-1.00;132011;1272;1005211;-83
2023/10/22 08:58:04;;;;;;;;;;;;;;;-128.00;-1.00;-1.00;131974;1272;1004556;-84
2023/10/22 09:01:07;;;;;;;;;;;;;;;-128.00;-1.00;-1.00;132012;1272;1004977;-83
2023/10/22 09:04:13;;;;;;;;;;;;;;;-128.00;-1.00;-1.00;132178;1272;1005030;-83
2023/10/22 09:07:15;;;;;;;;;;;;;;;-128.00;-1.00;-1.00;132270;1272;1004538;-85
2023/10/22 09:10:18;;;;;;;;;;;;;;;-128.00;-1.00;-1.00;132068;1272;1004969;-83
2023/10/22 09:13:22;;;;;;;;;;;;;;;-128.00;-1.00;-1.00;132180;1272;1005465;-85
2023/10/22 09:16:25;;;;;;;;;;;;;;;-128.00;-1.00;-1.00;132089;1272;1003835;-85
2023/10/22 09:19:27;;;;;;;;;;;;;;;-128.00;-1.00;-1.00;131990;1272;1004970;-85
2023/10/22 09:22:30;;;;;;;;;;;;;;;-128.00;-1.00;-1.00;132025;1272;1005054;-83
2023/10/22 09:25:32;;;;;;;;;;;;;;;-128.00;-1.00;-1.00;132033;1272;1005174;-83
2023/10/22 09:28:35;;;;;;;;;;;;;;;-128.00;-1.00;-1.00;132033;1272;1004702;-83
2023/10/22 09:31:38;;;;;;;;;;;;;;;-128.00;-1.00;-1.00;131987;1272;1004256;-83
2023/10/22 09:34:43;;;;;;;;;;;;;;;-128.00;-1.00;-1.00;132030;1272;1003700;-83
2023/10/22 09:37:46;;;;;;;;;;;;;;;-128.00;-1.00;-1.00;132009;1272;1004591;-83
2023/10/22 09:40:48;;;;;;;;;;;;;;;-128.00;-1.00;-1.00;132037;1273;1004712;-84
2023/10/22 09:43:51;;;;;;;;;;;;;;;-128.00;-1.00;-1.00;132009;1272;1003911;-84
2023/10/22 09:46:54;;;;;;;;;;;;;;;-128.00;-1.00;-1.00;132075;1272;1005123;-84
2023/10/22 09:49:57;;;;;;;;;;;;;;;-128.00;-1.00;-1.00;132133;1272;1003956;-83
2023/10/22 09:52:59;;;;;;;;;;;;;;;-128.00;-1.00;-1.00;132244;1272;1003507;-85
2023/10/22 09:56:06;;;;;;;;;;;;;;;-128.00;-1.00;-1.00;132257;1272;1004420;-82
2023/10/22 09:59:10;;;;;;;;;;;;;;;-128.00;-1.00;-1.00;132350;1272;1004347;-83
2023/10/22 10:02:13;;;;;;;;;;;;;;;-128.00;-1.00;-1.00;132271;1272;1005404;-83
2023/10/22 10:05:18;;;;;;;;;;;;;;;-128.00;-1.00;-1.00;132267;1272;1003423;-85
2023/10/22 10:08:20;;;;;;;;;;;;;;;-128.00;-1.00;-1.00;132249;1272;1004442;-83
2023/10/22 10:11:23;;;;;;;;;;;;;;;-128.00;-1.00;-1.00;132414;1272;1004825;-83
2023/10/22 10:14:26;;;;;;;;;;;;;;;-128.00;-1.00;-1.00;132323;1272;1004501;-82
2023/10/22 10:17:29;;;;;;;;;;;;;;;-128.00;-1.00;-1.00;132350;1272;1005245;-82
2023/10/22 10:20:31;;;;;;;;;;;;;;;-128.00;-1.00;-1.00;132413;1272;1004279;-82
2023/10/22 10:23:34;;;;;;;;;;;;;;;-128.00;-1.00;-1.00;132499;1272;1005237;-83
2023/10/22 10:26:36;;;;;;;;;;;;;;;-128.00;-1.00;-1.00;132239;1272;1004410;-82
2023/10/22 10:29:39;;;;;;;;;;;;;;;-128.00;-1.00;-1.00;132240;1272;1005482;-82
2023/10/22 10:32:41;;;;;;;;;;;;;;;-128.00;-1.00;-1.00;132287;1272;1004999;-82
2023/10/22 10:35:44;;;;;;;;;;;;;;;-128.00;-1.00;-1.00;132214;1272;1005006;-82
2023/10/22 10:38:46;;;;;;;;;;;;;;;-128.00;-1.00;-1.00;132367;1272;1004690;-82
2023/10/22 10:41:49;;;;;;;;;;;;;;;-128.00;-1.00;-1.00;132273;1272;1003853;-83
2023/10/22 10:44:52;;;;;;;;;;;;;;;-128.00;-1.00;-1.00;132288;1272;1004778;-83
2023/10/22 10:47:54;;;;;;;;;;;;;;;-128.00;-1.00;-1.00;132295;1272;1004853;-82
2023/10/22 10:50:56;;;;;;;;;;;;;;;-128.00;-1.00;-1.00;132312;1272;1003614;-82
2023/10/22 10:53:59;;;;;;;;;;;;;;;-128.00;-1.00;-1.00;132390;1272;1005195;-81
2023/10/22 10:57:01;;;;;;;;;;;;;;;-128.00;-1.00;-1.00;132496;1272;1004049;-84
2023/10/22 11:00:05;;;;;;;;;;;;;;;-128.00;-1.00;-1.00;132446;1272;1004932;-82
2023/10/22 11:03:10;;;;;;;;;;;;;;;-128.00;-1.00;-1.00;132451;1272;1003693;-81
2023/10/22 11:06:12;;;;;;;;;;;;;;;-128.00;-1.00;-1.00;132475;1272;1003567;-82
2023/10/22 11:09:15;;;;;;;;;;;;;;;-128.00;-1.00;-1.00;132505;1272;1004703;-82
2023/10/22 11:12:17;;;;;;;;;;;;;;;-128.00;-1.00;-1.00;132402;1272;1005148;-81
2023/10/22 11:15:20;;;;;;;;;;;;;;;-128.00;-1.00;-1.00;132202;1272;1006023;-83
2023/10/22 11:18:22;;;;;;;;;;;;;;;-128.00;-1.00;-1.00;132151;1272;1004616;-82
2023/10/22 11:21:25;;;;;;;;;;;;;;;-128.00;-1.00;-1.00;132124;1272;1004668;-83
2023/10/22 11:24:27;;;;;;;;;;;;;;;-128.00;-1.00;-1.00;132054;1272;1005361;-83
2023/10/22 11:27:30;;;;;;;;;;;;;;;-128.00;-1.00;-1.00;132306;1272;1004592;-82
2023/10/22 11:30:32;;;;;;;;;;;;;;;-128.00;-1.00;-1.00;132199;1272;1004256;-82
2023/10/22 11:33:37;;;;;;;;;;;;;;;-128.00;-1.00;-1.00;132248;1272;1004406;-81
2023/10/22 11:36:40;;;;;;;;;;;;;;;-128.00;-1.00;-1.00;132225;1272;1004900;-81
2023/10/22 11:39:42;;;;;;;;;;;;;;;-128.00;-1.00;-1.00;132256;1272;1003678;-81
2023/10/22 11:42:45;;;;;;;;;;;;;;;-128.00;-1.00;-1.00;132088;1272;1003704;-82
2023/10/22 11:45:48;;;;;;;;;;;;;;;-128.00;-1.00;-1.00;132022;1272;1004214;-82
2023/10/22 11:48:51;;;;;;;;;;;;;;;-128.00;-1.00;-1.00;132037;1272;1003940;-82
2023/10/22 11:51:54;;;;;;;;;;;;;;;-128.00;-1.00;-1.00;132018;1272;1004824;-82
2023/10/22 11:54:56;;;;;;;;;;;;;;;-128.00;-1.00;-1.00;132025;1272;1003990;-82
2023/10/22 11:57:59;;;;;;;;;;;;;;;-128.00;-1.00;-1.00;132096;1273;1004971;-83
2023/10/22 12:01:02;;;;;;;;;;;;;;;-128.00;-1.00;-1.00;132104;1272;1004744;-83
2023/10/22 12:04:05;;;;;;;;;;;;;;;-128.00;-1.00;-1.00;132076;1272;1003530;-82
2023/10/22 12:07:07;;;;;;;;;;;;;;;-128.00;-1.00;-1.00;132070;1272;1004857;-83
2023/10/22 12:10:10;;;;;;;;;;;;;;;-128.00;-1.00;-1.00;132062;1272;1005221;-84
2023/10/22 12:13:13;;;;;;;;;;;;;;;-128.00;-1.00;-1.00;132058;1272;1005181;-83
2023/10/22 12:16:16;;;;;;;;;;;;;;;-128.00;-1.00;-1.00;132070;1273;1004321;-83
2023/10/22 12:19:18;;;;;;;;;;;;;;;-128.00;-1.00;-1.00;132024;1272;1004735;-84
2023/10/22 12:22:21;;;;;;;;;;;;;;;-128.00;-1.00;-1.00;132057;1272;1005199;-83
2023/10/22 12:25:23;;;;;;;;;;;;;;;-128.00;-1.00;-1.00;132057;1272;1004719;-83
2023/10/22 12:28:28;;;;;;;;;;;;;;;-128.00;-1.00;-1.00;132032;1272;1003868;-83
2023/10/22 12:31:31;;;;;;;;;;;;;;;-128.00;-1.00;-1.00;132073;1272;1004296;-83
2023/10/22 12:34:33;;;;;;;;;;;;;;;-128.00;-1.00;-1.00;132055;1272;1004680;-85
2023/10/22 12:37:36;;;;;;;;;;;;;;;-128.00;-1.00;-1.00;132042;1272;1004623;-82
2023/10/22 12:40:39;;;;;;;;;;;;;;;-128.00;-1.00;-1.00;132045;1272;1004466;-82
2023/10/22 12:43:42;;;;;;;;;;;;;;;-128.00;-1.00;-1.00;132071;1272;1004805;-82
2023/10/22 12:46:47;;;;;;;;;;;;;;;-128.00;-1.00;-1.00;132085;1272;1004937;-80
2023/10/22 12:49:52;;;;;;;;;;;;;;;-128.00;-1.00;-1.00;132035;1272;1004123;-83
2023/10/22 12:52:55;;;;;;;;;;;;;;;-128.00;-1.00;-1.00;132086;1272;1003991;-82
2023/10/22 12:55:58;;;;;;;;;;;;;;;-128.00;-1.00;-1.00;132073;1272;1004506;-82
2023/10/22 12:59:01;;;;;;;;;;;;;;;-128.00;-1.00;-1.00;132050;1272;1003737;-83
2023/10/22 13:02:04;;;;;;;;;;;;;;;-128.00;-1.00;-1.00;132086;1272;1004709;-84
2023/10/22 13:05:07;;;;;;;;;;;;;;;-128.00;-1.00;-1.00;132096;1272;1004845;-82
2023/10/22 13:08:10;;;;;;;;;;;;;;;-128.00;-1.00;-1.00;132110;1272;1003931;-82
2023/10/22 13:11:17;;;;;;;;;;;;;;;-128.00;-1.00;-1.00;132102;1272;1004100;-84
2023/10/22 13:14:20;;;;;;;;;;;;;;;-128.00;-1.00;-1.00;132098;1272;1004441;-83
2023/10/22 13:17:22;;;;;;;;;;;;;;;-128.00;-1.00;-1.00;132125;1272;1003908;-84
2023/10/22 13:20:25;;;;;;;;;;;;;;;-128.00;-1.00;-1.00;132133;1272;1004489;-84
2023/10/22 13:23:28;;;;;;;;;;;;;;;-128.00;-1.00;-1.00;132055;1272;1004512;-82
2023/10/22 13:26:31;;;;;;;;;;;;;;;-128.00;-1.00;-1.00;132147;1272;1004353;-84
2023/10/22 13:29:37;;;;;;;;;;;;;;;-128.00;-1.00;-1.00;132105;1272;1004580;-84
2023/10/22 13:32:40;;;;;;;;;;;;;;;-128.00;-1.00;-1.00;132085;1272;1004468;-84
2023/10/22 13:35:44;;;;;;;;;;;;;;;-128.00;-1.00;-1.00;132070;1272;1004207;-84
2023/10/22 13:38:47;;;;;;;;;;;;;;;-128.00;-1.00;-1.00;132064;1272;1004878;-84
2023/10/22 13:41:52;;;;;;;;;;;;;;;-128.00;-1.00;-1.00;132062;1272;1003947;-83
2023/10/22 13:44:54;;;;;;;;;;;;;;;-128.00;-1.00;-1.00;132112;1272;1005141;-84
2023/10/22 13:47:57;;;;;;;;;;;;;;;-128.00;-1.00;-1.00;132050;1272;1004399;-84
2023/10/22 13:51:00;;;;;;;;;;;;;;;-128.00;-1.00;-1.00;132089;1272;1003653;-82
2023/10/22 13:54:03;;;;;;;;;;;;;;;-128.00;-1.00;-1.00;132078;1272;1003839;-83
2023/10/22 13:57:05;;;;;;;;;;;;;;;-128.00;-1.00;-1.00;132045;1272;1004225;-83
2023/10/22 14:00:10;;;;;;;;;;;;;;;-128.00;-1.00;-1.00;132043;1272;1005210;-82
2023/10/22 14:03:12;;;;;;;;;;;;;;;-128.00;-1.00;-1.00;132110;1272;1004443;-83
2023/10/22 14:06:15;;;;;;;;;;;;;;;-128.00;-1.00;-1.00;132037;1272;1004840;-82
2023/10/22 14:09:19;;;;;;;;;;;;;;;-128.00;-1.00;-1.00;132088;1272;1004976;-82
2023/10/22 14:12:21;;;;;;;;;;;;;;;-128.00;-1.00;-1.00;132053;1272;1006284;-81
2023/10/22 14:15:24;;;;;;;;;;;;;;;-128.00;-1.00;-1.00;132135;1272;1004954;-82
2023/10/22 14:18:26;;;;;;;;;;;;;;;-128.00;-1.00;-1.00;132071;1272;1004866;-82
2023/10/22 14:21:29;;;;;;;;;;;;;;;-128.00;-1.00;-1.00;132047;1272;1004668;-82
2023/10/22 14:24:33;;;;;;;;;;;;;;;-128.00;-1.00;-1.00;132009;1272;1004745;-84
2023/10/22 14:27:36;;;;;;;;;;;;;;;-128.00;-1.00;-1.00;132060;1272;1004158;-84
2023/10/22 14:30:39;;;;;;;;;;;;;;;-128.00;-1.00;-1.00;132023;1272;1004435;-84
2023/10/22 14:33:42;;;;;;;;;;;;;;;-128.00;-1.00;-1.00;132039;1272;1004441;-83
2023/10/22 14:36:48;;;;;;;;;;;;;;;-128.00;-1.00;-1.00;132003;1272;1005684;-83
2023/10/22 14:39:50;;;;;;;;;;;;;;;-128.00;-1.00;-1.00;132006;1272;1004230;-82
2023/10/22 14:42:53;;;;;;;;;;;;;;;-128.00;-1.00;-1.00;133381;1272;1004628;-82
2023/10/22 14:45:55;;;;;;;;;;;;;;;-128.00;-1.00;-1.00;133757;1272;1003997;-82
2023/10/22 14:48:58;;;;;;;;;;;;;;;-128.00;-1.00;-1.00;133707;1272;1003784;-82
2023/10/22 14:52:02;;;;;;;;;;;;;;;-128.00;-1.00;-1.00;133709;1272;1004238;-84
2023/10/22 14:55:08;;;;;;;;;;;;;;;-128.00;-1.00;-1.00;133093;1272;1004525;-83
2023/10/22 14:58:11;;;;;;;;;;;;;;;-128.00;-1.00;-1.00;133094;1272;1004116;-84
2023/10/22 15:01:16;;;;;;;;;;;;;;;-128.00;-1.00;-1.00;132799;1272;1005089;-84
2023/10/22 15:04:35;;;;;;;;;;;;;;;-128.00;-1.00;-1.00;132717;1272;1004496;-82
2023/10/22 15:07:38;;;;;;;;;;;;;;;-128.00;-1.00;-1.00;132504;1272;1005167;-83
2023/10/22 15:10:41;;;;;;;;;;;;;;;-128.00;-1.00;-1.00;132031;1272;1004236;-83
2023/10/22 15:13:43;;;;;;;;;;;;;;;-128.00;-1.00;-1.00;131986;1272;1004691;-84
2023/10/22 15:16:46;;;;;;;;;;;;;;;-128.00;-1.00;-1.00;131988;1272;1004476;-82
2023/10/22 15:19:48;;;;;;;;;;;;;;;-128.00;-1.00;-1.00;131997;1272;1005418;-82
2023/10/22 15:22:52;;;;;;;;;;;;;;;-128.00;-1.00;-1.00;131982;1272;1004315;-84
2023/10/22 15:25:55;;;;;;;;;;;;;;;-128.00;-1.00;-1.00;132055;1272;1005132;-83